EST,Max TemperatureF,Mean TemperatureF,Min TemperatureF,Max Dew PointF,MeanDew PointF,Min DewpointF,Max Humidity, Mean Humidity, Min Humidity, Max Sea Level PressureIn, Mean Sea Level PressureIn, Min Sea Level PressureIn, Max VisibilityMiles, Mean VisibilityMiles, Min VisibilityMiles, Max Wind SpeedMPH, Mean Wind SpeedMPH, Max Gust SpeedMPH,PrecipitationIn, CloudCover, Events, WindDirDegrees
2014-1-1,20,17,13,13,8,5,80,68,56,30.39,30.34,30.22,10,8,2,22,10,28,0.01,8,Snow,337
2014-1-2,13,6,-2,9,6,-6,92,84,76,30.32,30.14,29.94,3,1,0,14,7,16,0.51,8,Fog-Snow,31
2014-1-3,7,0,-8,0,-8,-15,86,74,62,30.45,30.22,29.95,10,7,2,14,7,20,0.02,6,Snow,305
2014-1-4,32,14,-4,9,2,-8,79,57,35,30.39,30.20,30.08,10,10,10,18,8,22,0.00,6,,138
2014-1-5,46,33,19,41,20,9,96,69,42,30.19,29.98,29.50,10,10,5,14,8,17,0.16,8,Rain,85
2014-1-6,50,29,7,45,24,-7,89,70,50,29.77,29.51,29.25,10,8,2,46,21,52,0.17,8,Rain-Snow,244
2014-1-7,8,4,0,-4,-9,-12,66,56,45,30.26,30.05,29.78,10,10,6,39,24,49,T,6,Snow,243
2014-1-8,21,14,7,8,3,-4,80,65,49,30.45,30.40,30.29,10,9,4,22,9,26,T,6,Snow,225
2014-1-9,25,21,16,13,11,8,80,69,57,30.65,30.54,30.43,10,9,4,20,9,28,T,6,Snow,239
2014-1-10,39,29,18,34,24,12,96,85,73,30.42,30.31,30.05,10,5,0,12,5,14,0.10,8,Fog-Snow,88
2014-1-11,55,45,35,49,43,32,92,81,70,30.02,29.54,29.25,10,9,2,32,13,44,0.22,8,Rain,198
2014-1-12,41,35,28,33,29,24,82,76,70,29.99,29.75,29.42,10,10,7,31,15,37,T,7,Rain-Snow,254
2014-1-13,51,38,25,41,27,23,85,60,35,29.98,29.84,29.70,10,10,10,20,9,28,0.00,6,Rain,168
2014-1-14,46,42,37,43,39,32,96,85,74,29.84,29.73,29.55,10,7,2,12,5,15,0.00,8,Rain,278
2014-1-15,42,35,28,35,28,20,92,76,59,29.99,29.88,29.80,10,9,6,16,5,22,0.01,7,Fog-Rain-Snow,296
2014-1-16,36,31,25,22,19,16,75,61,47,30.00,29.93,29.87,10,10,10,9,4,13,T,6,,152
2014-1-17,42,34,26,24,21,18,75,60,45,29.87,29.84,29.81,10,10,8,20,8,26,T,7,Snow,166
2014-1-18,30,25,20,28,22,13,100,86,71,29.87,29.82,29.76,10,4,0,21,11,25,0.28,8,Fog-Snow,256
2014-1-19,31,24,17,27,18,12,92,75,57,29.84,29.63,29.47,10,5,1,28,12,35,0.03,8,Snow,226
2014-1-20,32,20,8,28,16,1,92,79,66,30.03,29.71,29.51,10,5,1,21,8,28,0.07,8,Snow,311
2014-1-21,8,0,-9,1,-9,-16,79,62,45,30.15,30.10,30.01,10,10,9,13,7,16,T,5,Snow,327
2014-1-22,5,-3,-12,-6,-12,-19,79,68,56,30.10,30.07,30.01,10,10,7,14,6,18,T,3,Snow,314
2014-1-23,14,6,-3,5,-1,-8,88,75,61,30.30,30.16,30.05,10,5,1,16,4,20,0.06,7,Snow,320
2014-1-24,19,10,0,1,-1,-4,87,63,39,30.35,30.19,29.78,10,6,1,22,11,28,0.02,7,Snow,225
2014-1-25,28,21,14,21,11,-1,92,68,43,29.74,29.44,29.27,10,6,0,26,16,36,0.03,8,Fog-Snow,230
2014-1-26,27,16,5,17,5,-4,91,70,48,29.78,29.66,29.54,10,5,0,20,12,20,0.14,8,Fog-Snow,282
2014-1-27,38,23,7,28,12,-6,92,70,47,30.09,29.69,29.30,10,6,0,38,20,47,0.03,6,Fog-Snow,256
2014-1-28,11,4,-4,-6,-9,-13,71,59,46,30.34,30.25,30.11,10,10,7,29,13,39,0.00,4,,234
2014-1-29,17,7,-3,4,-5,-12,67,56,45,30.25,30.14,30.05,10,10,10,28,13,36,0.00,3,,236
2014-1-30,29,17,5,5,3,-2,69,52,34,30.35,30.19,29.93,10,10,10,22,10,30,0.00,4,,172
2014-1-31,35,31,26,22,15,5,63,51,38,30.19,30.05,29.93,10,10,10,22,8,26,0.00,8,,217